Time;durP1;ratioP1;P1;durP2;ratioP2;P2;SDS_P1;SDS_P2;PMS_P1;PMS_P2;Temp;Humidity;BMP_temperature;BMP_pressure;BME280_temperature;BME280_humidity;BME280_pressure;Samples;Min_cycle;Max_cycle;Signal;HPM_P1;HPM_P2
2022/01/22 00:02:08;;;;;;;;;;;17.60;46.20;;;;;;5098190;28;19912;-64
2022/01/22 00:04:33;;;;;;;;;;;17.50;46.20;;;;;;5097981;28;19912;-64
2022/01/22 00:07:01;;;;;;;;;;;17.60;46.30;;;;;;5098424;28;19938;-64
2022/01/22 00:09:28;;;;;;;;;;;17.50;46.20;;;;;;5096060;28;19954;-64
2022/01/22 00:11:54;;;;;;;;;;;17.50;46.20;;;;;;5080569;28;19913;-64
2022/01/22 00:14:26;;;;;;;;;;;17.50;46.30;;;;;;5094045;28;20050;-65
2022/01/22 00:16:52;;;;;;;;;;;17.50;46.40;;;;;;5078493;28;19912;-63
2022/01/22 00:19:17;;;;;;;;;;;17.50;46.40;;;;;;5092022;28;19920;-64
2022/01/22 00:21:43;;;;;;;;;;;17.40;46.40;;;;;;5099264;28;19919;-64
2022/01/22 00:24:11;;;;;;;;;;;17.50;46.50;;;;;;5096832;28;20437;-64
2022/01/22 00:26:36;;;;;;;;;;;17.50;46.40;;;;;;5100366;28;20039;-64
2022/01/22 00:29:02;;;;;;;;;;;17.40;46.40;;;;;;5111581;27;20424;-64
2022/01/22 00:31:27;;;;;;;;;;;17.40;46.40;;;;;;5100660;28;19912;-65
2022/01/22 00:33:53;;;;;;;;;;;17.40;46.50;;;;;;5097701;28;19922;-64
2022/01/22 00:36:18;;;;;;;;;;;17.40;47.20;;;;;;5096553;28;19912;-64
2022/01/22 00:38:43;;;;;;;;;;;17.40;46.60;;;;;;5096311;28;19965;-64
2022/01/22 00:41:09;;;;;;;;;;;17.40;46.60;;;;;;5097001;28;19923;-63
2022/01/22 00:43:35;;;;;;;;;;;17.40;46.60;;;;;;5097942;28;19942;-64
2022/01/22 00:46:00;;;;;;;;;;;17.40;46.60;;;;;;5095906;28;19916;-64
2022/01/22 00:48:26;;;;;;;;;;;17.30;46.60;;;;;;5097461;28;19962;-64
2022/01/22 00:50:55;;;;;;;;;;;17.30;46.60;;;;;;5095578;28;19918;-64
2022/01/22 00:53:20;;;;;;;;;;;17.30;46.60;;;;;;5110474;27;19920;-64
2022/01/22 00:55:46;;;;;;;;;;;17.30;46.70;;;;;;5094178;28;20386;-63
2022/01/22 00:58:12;;;;;;;;;;;17.30;46.70;;;;;;5094557;28;20288;-63
2022/01/22 01:00:37;;;;;;;;;;;17.30;46.70;;;;;;5094701;28;19912;-64
2022/01/22 01:03:03;;;;;;;;;;;17.30;46.70;;;;;;5094319;28;20365;-64
2022/01/22 01:05:28;;;;;;;;;;;17.30;46.70;;;;;;5093837;28;19920;-64
2022/01/22 01:07:53;;;;;;;;;;;17.30;46.70;;;;;;5094236;28;19928;-64
2022/01/22 01:10:20;;;;;;;;;;;17.20;46.70;;;;;;5058529;28;19923;-64
2022/01/22 01:12:47;;;;;;;;;;;17.20;46.70;;;;;;5108824;27;19920;-64
2022/01/22 01:15:35;;;;;;;;;;;17.20;46.70;;;;;;5096249;28;19912;-63
2022/01/22 01:32:08;;;;;;;;;;;17.20;46.70;;;;;;5093348;28;19912;-64
2022/01/22 01:34:30;;;;;;;;;;;17.10;46.90;;;;;;5091764;28;19927;-64
2022/01/22 01:36:55;;;;;;;;;;;17.10;46.90;;;;;;5079828;28;19916;-64
2022/01/22 01:39:29;;;;;;;;;;;17.20;47.00;;;;;;5092725;28;20372;-64
2022/01/22 01:42:05;;;;;;;;;;;17.20;47.00;;;;;;5098822;28;20003;-64
2022/01/22 01:44:31;;;;;;;;;;;17.10;47.00;;;;;;5085355;28;19942;-64
2022/01/22 01:46:58;;;;;;;;;;;17.10;47.00;;;;;;5078899;28;20273;-64
2022/01/22 01:49:24;;;;;;;;;;;17.00;47.00;;;;;;5092099;28;19912;-64
2022/01/22 01:51:49;;;;;;;;;;;17.10;47.10;;;;;;5095084;28;19968;-64
2022/01/22 01:59:51;;;;;;;;;;;17.00;47.10;;;;;;5099317;28;19958;-63
2022/01/22 02:02:16;;;;;;;;;;;17.00;47.20;;;;;;5092158;28;20368;-63
2022/01/22 02:04:42;;;;;;;;;;;17.10;47.20;;;;;;5091478;28;20356;-63
2022/01/22 02:07:08;;;;;;;;;;;17.00;47.10;;;;;;5092136;28;19912;-63
2022/01/22 02:09:33;;;;;;;;;;;17.10;47.20;;;;;;5108467;28;20410;-64
2022/01/22 02:12:05;;;;;;;;;;;17.00;47.20;;;;;;5074895;28;19916;-64
2022/01/22 02:25:18;;;;;;;;;;;17.00;47.10;;;;;;5091010;28;19970;-64
2022/01/22 02:27:44;;;;;;;;;;;17.00;47.10;;;;;;5126123;27;20276;-64
2022/01/22 02:30:09;;;;;;;;;;;17.00;47.10;;;;;;5107113;28;19977;-64
2022/01/22 02:35:28;;;;;;;;;;;17.20;46.90;;;;;;5105189;27;19961;-64
2022/01/22 02:38:06;;;;;;;;;;;17.30;46.70;;;;;;5071866;28;20523;-64
2022/01/22 02:40:40;;;;;;;;;;;17.40;46.60;;;;;;5091241;28;20324;-64
2022/01/22 02:43:06;;;;;;;;;;;17.40;46.60;;;;;;5124694;27;19939;-64
2022/01/22 02:45:32;;;;;;;;;;;17.40;46.60;;;;;;5090378;28;19912;-64
2022/01/22 02:47:57;;;;;;;;;;;17.50;46.70;;;;;;5107978;27;19919;-64
2022/01/22 02:50:23;;;;;;;;;;;17.50;46.50;;;;;;5092934;28;19916;-64
2022/01/22 02:52:48;;;;;;;;;;;17.50;46.40;;;;;;5092287;28;19912;-64
2022/01/22 02:55:14;;;;;;;;;;;17.60;46.30;;;;;;5096072;28;19911;-64
2022/01/22 02:57:42;;;;;;;;;;;17.70;46.30;;;;;;5082443;28;19908;-64
2022/01/22 03:00:08;;;;;;;;;;;17.70;46.20;;;;;;5081330;28;20054;-64
2022/01/22 03:02:33;;;;;;;;;;;17.80;46.10;;;;;;5091152;28;19923;-64
2022/01/22 03:05:00;;;;;;;;;;;17.80;46.10;;;;;;5091703;28;19916;-64
2022/01/22 03:07:26;;;;;;;;;;;17.80;46.00;;;;;;5091270;28;20004;-64
2022/01/22 03:09:53;;;;;;;;;;;17.90;45.90;;;;;;5091194;28;19958;-64
2022/01/22 03:15:31;;;;;;;;;;;18.00;45.80;;;;;;5098948;28;20403;-64
2022/01/22 03:27:12;;;;;;;;;;;18.10;45.70;;;;;;5090802;28;19923;-63
2022/01/22 03:28:51;;;;;;;;;;;18.10;45.60;;;;;;5092302;28;19958;-64
2022/01/22 03:31:16;;;;;;;;;;;18.10;45.50;;;;;;5097982;28;19955;-64
2022/01/22 03:33:42;;;;;;;;;;;18.20;45.60;;;;;;5124177;27;19962;-64
2022/01/22 03:36:07;;;;;;;;;;;18.20;45.50;;;;;;5091052;28;19977;-64
2022/01/22 03:38:33;;;;;;;;;;;18.20;45.50;;;;;;5124697;28;20011;-64
2022/01/22 03:40:58;;;;;;;;;;;18.20;45.50;;;;;;5124046;28;19927;-64
2022/01/22 03:43:24;;;;;;;;;;;18.20;45.50;;;;;;5091893;28;19913;-64
2022/01/22 03:45:49;;;;;;;;;;;18.30;45.50;;;;;;5087397;28;19909;-64
2022/01/22 03:48:15;;;;;;;;;;;18.30;45.50;;;;;;5072214;28;19912;-63
2022/01/22 03:50:40;;;;;;;;;;;18.30;45.50;;;;;;5107923;28;20319;-64
2022/01/22 03:53:06;;;;;;;;;;;18.30;45.50;;;;;;5124979;28;20008;-64
2022/01/22 03:58:15;;;;;;;;;;;18.30;45.40;;;;;;5091727;28;19965;-63
2022/01/22 04:00:41;;;;;;;;;;;18.30;45.40;;;;;;5106734;28;19916;-63
2022/01/22 04:03:30;;;;;;;;;;;18.30;45.30;;;;;;5090700;28;19919;-64
2022/01/22 04:06:23;;;;;;;;;;;18.30;45.40;;;;;;5091507;28;19908;-65
2022/01/22 04:08:46;;;;;;;;;;;18.30;45.50;;;;;;5090455;28;19927;-64
2022/01/22 04:11:15;;;;;;;;;;;18.30;45.50;;;;;;5091940;28;19908;-64
2022/01/22 04:13:41;;;;;;;;;;;18.20;45.60;;;;;;5091200;28;19916;-64
2022/01/22 04:16:08;;;;;;;;;;;18.20;45.70;;;;;;5094330;28;19919;-63
2022/01/22 04:26:54;;;;;;;;;;;18.20;45.70;;;;;;5094711;28;19921;-64
2022/01/22 04:29:23;;;;;;;;;;;18.20;45.70;;;;;;5074023;28;20357;-65
2022/01/22 04:31:49;;;;;;;;;;;18.30;45.70;;;;;;5073993;28;19912;-64
2022/01/22 04:34:14;;;;;;;;;;;18.30;45.60;;;;;;5094176;28;19916;-64
2022/01/22 04:36:40;;;;;;;;;;;18.30;45.70;;;;;;5094391;28;20364;-65
2022/01/22 04:39:05;;;;;;;;;;;18.30;45.60;;;;;;5095498;28;19916;-64
2022/01/22 04:41:31;;;;;;;;;;;18.30;45.70;;;;;;5095071;28;19919;-64
2022/01/22 04:44:00;;;;;;;;;;;18.30;45.70;;;;;;5093728;28;20424;-64
2022/01/22 04:46:53;;;;;;;;;;;18.30;45.70;;;;;;5091098;28;19924;-64
2022/01/22 04:57:17;;;;;;;;;;;18.30;45.50;;;;;;5094298;28;20318;-63
2022/01/22 04:59:42;;;;;;;;;;;18.40;45.60;;;;;;5094527;28;19973;-64
2022/01/22 05:02:08;;;;;;;;;;;18.40;45.50;;;;;;5094855;28;19924;-64
2022/01/22 05:04:33;;;;;;;;;;;18.40;45.60;;;;;;5094312;28;20382;-64
2022/01/22 05:06:59;;;;;;;;;;;18.40;45.60;;;;;;5093840;28;20311;-64
2022/01/22 05:09:24;;;;;;;;;;;18.40;45.60;;;;;;5093865;28;20354;-64
2022/01/22 05:11:50;;;;;;;;;;;18.40;45.50;;;;;;5094921;28;19915;-64
2022/01/22 05:14:15;;;;;;;;;;;18.40;45.60;;;;;;5126669;27;19920;-64
2022/01/22 05:16:41;;;;;;;;;;;18.40;45.70;;;;;;5095171;28;19947;-64
2022/01/22 05:19:18;;;;;;;;;;;18.40;45.60;;;;;;5093919;28;19921;-64
2022/01/22 05:21:45;;;;;;;;;;;18.40;45.60;;;;;;5093111;28;19957;-64
2022/01/22 05:24:15;;;;;;;;;;;18.40;45.50;;;;;;5094219;28;19908;-64
2022/01/22 05:27:09;;;;;;;;;;;18.40;45.40;;;;;;5126717;27;19919;-64
2022/01/22 05:37:22;;;;;;;;;;;18.50;45.50;;;;;;5091949;28;19919;-64
2022/01/22 05:39:48;;;;;;;;;;;18.50;45.60;;;;;;5093528;28;19916;-64
2022/01/22 05:42:14;;;;;;;;;;;18.50;45.60;;;;;;5076457;28;19908;-64
2022/01/22 05:44:41;;;;;;;;;;;18.50;45.60;;;;;;5092711;28;19918;-64
2022/01/22 05:47:06;;;;;;;;;;;18.50;45.60;;;;;;5080113;28;19998;-64
2022/01/22 05:49:34;;;;;;;;;;;18.50;45.60;;;;;;5076179;28;21482;-65
2022/01/22 05:52:03;;;;;;;;;;;18.50;45.50;;;;;;5094156;28;20265;-64
2022/01/22 05:54:48;;;;;;;;;;;18.50;45.50;;;;;;5092354;28;19962;-64
2022/01/22 05:59:57;;;;;;;;;;;18.50;45.50;;;;;;5093203;28;19965;-64
2022/01/22 06:02:23;;;;;;;;;;;18.50;45.60;;;;;;5093998;28;19912;-64
2022/01/22 06:04:48;;;;;;;;;;;18.50;45.60;;;;;;5092212;28;19912;-64
2022/01/22 06:07:14;;;;;;;;;;;18.60;45.60;;;;;;5092433;28;19915;-64
2022/01/22 06:09:51;;;;;;;;;;;18.60;45.70;;;;;;5093453;28;19914;-64
2022/01/22 06:12:27;;;;;;;;;;;18.60;45.70;;;;;;5099016;28;19989;-64
2022/01/22 06:14:53;;;;;;;;;;;18.60;45.50;;;;;;5091765;28;19912;-64
2022/01/22 06:17:18;;;;;;;;;;;18.60;45.60;;;;;;5093105;28;19960;-63
2022/01/22 06:19:43;;;;;;;;;;;18.60;45.60;;;;;;5126078;27;20300;-65
2022/01/22 06:22:09;;;;;;;;;;;18.60;45.50;;;;;;5092974;28;19912;-65
2022/01/22 06:24:34;;;;;;;;;;;18.60;45.50;;;;;;5091451;28;19915;-64
2022/01/22 06:27:00;;;;;;;;;;;18.60;45.60;;;;;;5093151;28;19919;-65
2022/01/22 06:29:25;;;;;;;;;;;18.60;45.60;;;;;;5093582;28;19912;-65
2022/01/22 06:31:51;;;;;;;;;;;18.60;45.50;;;;;;5091524;28;19993;-65
2022/01/22 06:34:16;;;;;;;;;;;18.60;45.50;;;;;;5074937;28;19912;-65
2022/01/22 06:36:42;;;;;;;;;;;18.60;45.50;;;;;;5092842;28;20372;-64
2022/01/22 06:39:13;;;;;;;;;;;18.70;45.60;;;;;;5091586;28;19915;-64
2022/01/22 06:41:45;;;;;;;;;;;18.60;45.60;;;;;;5123346;27;20029;-65
2022/01/22 06:44:14;;;;;;;;;;;18.70;45.60;;;;;;5091970;28;19916;-65
2022/01/22 06:46:40;;;;;;;;;;;18.60;45.60;;;;;;5091733;28;20349;-65
2022/01/22 06:49:05;;;;;;;;;;;18.60;45.60;;;;;;5091529;28;19962;-64
2022/01/22 06:51:32;;;;;;;;;;;18.60;45.60;;;;;;5125880;27;19908;-64
2022/01/22 06:53:58;;;;;;;;;;;18.60;45.60;;;;;;5124369;27;19916;-64
2022/01/22 06:56:25;;;;;;;;;;;18.70;45.60;;;;;;5091655;28;19977;-64
2022/01/22 06:58:50;;;;;;;;;;;18.70;45.70;;;;;;5092349;28;19919;-64
2022/01/22 07:01:15;;;;;;;;;;;18.70;45.60;;;;;;5091751;28;20343;-64
2022/01/22 07:03:41;;;;;;;;;;;18.70;45.60;;;;;;5090817;28;19919;-64
2022/01/22 07:06:06;;;;;;;;;;;18.70;45.60;;;;;;5125632;27;20364;-64
2022/01/22 07:08:32;;;;;;;;;;;18.70;45.50;;;;;;5123140;27;19912;-65
2022/01/22 07:10:57;;;;;;;;;;;18.70;45.50;;;;;;5092113;28;19923;-64
2022/01/22 07:13:23;;;;;;;;;;;18.70;45.50;;;;;;5091493;28;20291;-65
2022/01/22 07:15:48;;;;;;;;;;;18.70;45.50;;;;;;5091888;28;19959;-64
2022/01/22 07:18:14;;;;;;;;;;;18.70;45.60;;;;;;5090587;28;19964;-65
2022/01/22 07:20:41;;;;;;;;;;;18.70;45.60;;;;;;5091921;28;19971;-64
2022/01/22 07:25:55;;;;;;;;;;;18.70;45.50;;;;;;5072668;28;20312;-64
2022/01/22 07:28:20;;;;;;;;;;;18.70;45.60;;;;;;5091681;28;19912;-64
2022/01/22 07:30:48;;;;;;;;;;;18.70;45.70;;;;;;5124289;27;19916;-64
2022/01/22 07:33:13;;;;;;;;;;;18.70;45.70;;;;;;5091006;28;19920;-65
2022/01/22 07:35:39;;;;;;;;;;;18.70;45.60;;;;;;5091276;28;19934;-64
2022/01/22 07:38:04;;;;;;;;;;;18.70;45.60;;;;;;5101164;28;19919;-64
2022/01/22 07:40:30;;;;;;;;;;;18.70;45.50;;;;;;5095144;28;20437;-65
2022/01/22 07:42:55;;;;;;;;;;;18.70;45.70;;;;;;5093589;28;20306;-64
2022/01/22 07:45:21;;;;;;;;;;;18.70;45.60;;;;;;5090962;28;19908;-64
2022/01/22 07:47:46;;;;;;;;;;;18.70;45.60;;;;;;5090121;28;20295;-64
2022/01/22 07:50:12;;;;;;;;;;;18.80;45.70;;;;;;5091673;28;19919;-64
2022/01/22 07:52:37;;;;;;;;;;;18.70;45.60;;;;;;5082676;28;19916;-65
2022/01/22 07:55:03;;;;;;;;;;;18.70;45.70;;;;;;5105516;28;19922;-64
2022/01/22 07:57:29;;;;;;;;;;;18.70;45.70;;;;;;5090585;28;20393;-64
2022/01/22 07:59:54;;;;;;;;;;;18.70;45.60;;;;;;5093492;28;19912;-64
2022/01/22 08:02:20;;;;;;;;;;;18.80;45.80;;;;;;5089903;28;19916;-64
2022/01/22 08:04:45;;;;;;;;;;;18.80;45.70;;;;;;5076263;28;19916;-64
2022/01/22 08:07:11;;;;;;;;;;;18.80;45.80;;;;;;5075741;28;19909;-65
2022/01/22 08:09:36;;;;;;;;;;;18.80;45.70;;;;;;5106830;27;20011;-65
2022/01/22 08:12:02;;;;;;;;;;;18.80;45.70;;;;;;5101690;27;19912;-65
2022/01/22 08:14:27;;;;;;;;;;;18.80;45.80;;;;;;5077387;28;19916;-65
2022/01/22 08:16:53;;;;;;;;;;;18.80;45.70;;;;;;5095994;28;19916;-64
2022/01/22 08:19:18;;;;;;;;;;;18.80;45.70;;;;;;5078325;28;20011;-65
2022/01/22 08:21:44;;;;;;;;;;;18.80;45.80;;;;;;5075747;28;19973;-63
2022/01/22 08:24:11;;;;;;;;;;;18.80;45.80;;;;;;5090822;28;19909;-64
2022/01/22 08:26:40;;;;;;;;;;;18.80;45.80;;;;;;5111011;28;19908;-64
2022/01/22 08:29:06;;;;;;;;;;;18.80;45.80;;;;;;5095243;28;19913;-64
2022/01/22 08:36:42;;;;;;;;;;;18.80;45.80;;;;;;5094508;28;19919;-64
2022/01/22 08:39:07;;;;;;;;;;;18.80;45.80;;;;;;5093345;28;20280;-64
2022/01/22 08:41:33;;;;;;;;;;;18.80;45.80;;;;;;5095116;28;20014;-64
2022/01/22 08:43:59;;;;;;;;;;;18.90;45.80;;;;;;5077193;28;19990;-63
2022/01/22 08:46:25;;;;;;;;;;;18.90;45.90;;;;;;5077498;28;20431;-63
2022/01/22 08:48:50;;;;;;;;;;;18.80;45.80;;;;;;5092093;28;20061;-64
2022/01/22 08:51:16;;;;;;;;;;;18.90;45.80;;;;;;5095363;28;19994;-65
2022/01/22 08:53:41;;;;;;;;;;;18.80;45.80;;;;;;5094779;28;19920;-64
2022/01/22 08:56:08;;;;;;;;;;;18.80;45.90;;;;;;5090000;28;20391;-64
2022/01/22 08:58:33;;;;;;;;;;;18.90;45.90;;;;;;5097439;28;19912;-64
2022/01/22 09:00:59;;;;;;;;;;;18.90;45.90;;;;;;5106022;28;20007;-64
2022/01/22 09:03:25;;;;;;;;;;;18.90;45.90;;;;;;5093103;28;19930;-64
2022/01/22 09:05:50;;;;;;;;;;;18.90;46.00;;;;;;5095122;28;19913;-64
2022/01/22 09:08:16;;;;;;;;;;;18.90;46.00;;;;;;5086576;28;19981;-64
2022/01/22 09:10:42;;;;;;;;;;;18.90;46.70;;;;;;5085729;28;20364;-64
2022/01/22 09:13:07;;;;;;;;;;;18.80;45.90;;;;;;5090775;28;19915;-64
2022/01/22 09:15:33;;;;;;;;;;;18.90;46.00;;;;;;5087459;28;20372;-64
2022/01/22 09:17:58;;;;;;;;;;;18.90;46.00;;;;;;5108014;28;19994;-64
2022/01/22 09:23:15;;;;;;;;;;;18.90;46.00;;;;;;5068384;28;19919;-64
2022/01/22 09:25:41;;;;;;;;;;;18.90;46.00;;;;;;5096443;28;19912;-65
2022/01/22 09:28:13;;;;;;;;;;;18.90;46.00;;;;;;5095837;28;19999;-64
2022/01/22 09:30:39;;;;;;;;;;;18.90;46.10;;;;;;5093340;28;20273;-64
2022/01/22 09:33:05;;;;;;;;;;;18.90;46.00;;;;;;5092739;28;19938;-64
2022/01/22 09:35:30;;;;;;;;;;;18.90;46.00;;;;;;5094545;28;19912;-64
2022/01/22 09:37:57;;;;;;;;;;;18.90;46.00;;;;;;5094007;28;19944;-64
2022/01/22 09:40:26;;;;;;;;;;;18.90;46.10;;;;;;5092161;28;19982;-64
2022/01/22 09:42:52;;;;;;;;;;;18.90;46.10;;;;;;5093055;28;19915;-64
2022/01/22 09:45:17;;;;;;;;;;;18.90;46.00;;;;;;5127003;27;19908;-64
2022/01/22 09:47:44;;;;;;;;;;;18.90;46.20;;;;;;5094617;28;19912;-65
2022/01/22 09:50:10;;;;;;;;;;;18.90;46.10;;;;;;5091000;28;19926;-64
2022/01/22 09:52:35;;;;;;;;;;;19.00;46.10;;;;;;5095111;28;19923;-64
2022/01/22 09:55:01;;;;;;;;;;;19.00;46.20;;;;;;5095333;28;20307;-64
2022/01/22 09:57:26;;;;;;;;;;;19.00;46.10;;;;;;5093520;28;19916;-64
2022/01/22 09:59:52;;;;;;;;;;;19.00;46.30;;;;;;5096113;28;20038;-64
2022/01/22 10:02:18;;;;;;;;;;;19.00;46.20;;;;;;5107763;28;20016;-64
2022/01/22 10:04:45;;;;;;;;;;;19.00;46.20;;;;;;5092122;28;20409;-64
2022/01/22 10:07:18;;;;;;;;;;;19.00;46.20;;;;;;5075845;28;19995;-65
2022/01/22 10:09:56;;;;;;;;;;;18.90;46.20;;;;;;5078553;28;19937;-64
2022/01/22 10:12:23;;;;;;;;;;;18.90;46.20;;;;;;5093678;28;19908;-65
2022/01/22 10:15:04;;;;;;;;;;;19.00;46.30;;;;;;5068047;28;20027;-64
2022/01/22 10:17:40;;;;;;;;;;;19.00;46.30;;;;;;5098995;27;19941;-64
2022/01/22 10:20:28;;;;;;;;;;;19.00;46.30;;;;;;5093294;28;19920;-64
2022/01/22 10:22:55;;;;;;;;;;;19.00;46.30;;;;;;5091986;28;19924;-64
2022/01/22 10:25:23;;;;;;;;;;;19.00;46.30;;;;;;5089662;28;19920;-64
2022/01/22 10:27:55;;;;;;;;;;;19.00;46.30;;;;;;5081413;28;20260;-64
2022/01/22 10:30:21;;;;;;;;;;;19.00;46.40;;;;;;5081939;28;19970;-64
2022/01/22 10:35:38;;;;;;;;;;;19.00;46.40;;;;;;5068680;28;20050;-64
2022/01/22 10:38:03;;;;;;;;;;;19.00;46.40;;;;;;5104508;28;19994;-64
2022/01/22 10:40:30;;;;;;;;;;;19.00;46.40;;;;;;5097728;28;19912;-64
2022/01/22 10:43:16;;;;;;;;;;;19.00;47.00;;;;;;5092031;28;20327;-64
2022/01/22 10:45:42;;;;;;;;;;;19.00;46.40;;;;;;5092572;28;20311;-64
2022/01/22 10:48:14;;;;;;;;;;;19.00;46.40;;;;;;5094287;28;19947;-64
2022/01/22 10:50:39;;;;;;;;;;;19.00;46.40;;;;;;5092979;28;19912;-64
2022/01/22 10:53:05;;;;;;;;;;;19.00;46.30;;;;;;5088085;28;19927;-64
2022/01/22 10:55:30;;;;;;;;;;;19.00;46.30;;;;;;5075546;28;20228;-64
2022/01/22 10:58:08;;;;;;;;;;;19.00;46.30;;;;;;5086185;28;19912;-64
2022/01/22 11:00:34;;;;;;;;;;;19.00;46.40;;;;;;5085944;28;20384;-64
2022/01/22 11:03:17;;;;;;;;;;;19.10;46.50;;;;;;5090493;28;19918;-64
2022/01/22 11:05:42;;;;;;;;;;;19.10;46.40;;;;;;5067927;28;19920;-64
2022/01/22 11:08:08;;;;;;;;;;;19.00;46.30;;;;;;5087259;28;20463;-65
2022/01/22 11:10:34;;;;;;;;;;;19.00;46.40;;;;;;5109884;28;19912;-64
2022/01/22 11:12:59;;;;;;;;;;;19.00;46.50;;;;;;5106037;28;19962;-64
2022/01/22 11:15:25;;;;;;;;;;;19.00;46.40;;;;;;5094196;28;19920;-64
2022/01/22 11:17:51;;;;;;;;;;;19.00;46.40;;;;;;5080157;28;19920;-64
2022/01/22 11:20:16;;;;;;;;;;;19.10;46.40;;;;;;5074088;28;19923;-64
2022/01/22 11:22:42;;;;;;;;;;;19.10;46.40;;;;;;5085389;28;19923;-64
2022/01/22 11:25:08;;;;;;;;;;;19.10;46.40;;;;;;5092475;28;19919;-64
2022/01/22 11:27:34;;;;;;;;;;;19.10;46.40;;;;;;5097729;28;19916;-64
2022/01/22 11:30:04;;;;;;;;;;;19.10;46.40;;;;;;5074062;28;20292;-64
2022/01/22 11:32:39;;;;;;;;;;;19.10;47.10;;;;;;5069996;28;20291;-64
2022/01/22 11:35:05;;;;;;;;;;;19.10;46.40;;;;;;5070284;28;20266;-64
2022/01/22 11:37:35;;;;;;;;;;;19.10;46.50;;;;;;5086953;28;19919;-64
2022/01/22 11:40:14;;;;;;;;;;;19.10;46.70;;;;;;5090792;28;19937;-64
2022/01/22 11:43:03;;;;;;;;;;;19.10;46.50;;;;;;5090034;28;20395;-64
2022/01/22 11:45:30;;;;;;;;;;;19.10;46.60;;;;;;5092870;28;19982;-64
2022/01/22 11:48:08;;;;;;;;;;;19.10;46.60;;;;;;5092306;28;19909;-64
2022/01/22 11:50:34;;;;;;;;;;;19.10;46.60;;;;;;5090819;28;19916;-64
2022/01/22 11:53:19;;;;;;;;;;;19.10;46.60;;;;;;5090883;28;20030;-65
2022/01/22 11:56:05;;;;;;;;;;;19.10;46.60;;;;;;5090351;28;19912;-65
2022/01/22 11:58:30;;;;;;;;;;;19.10;46.60;;;;;;5091953;28;19909;-64
2022/01/22 12:00:56;;;;;;;;;;;19.10;46.50;;;;;;5124932;28;19908;-65
2022/01/22 12:03:21;;;;;;;;;;;19.10;46.50;;;;;;5090785;28;19908;-65
2022/01/22 12:05:53;;;;;;;;;;;19.10;46.50;;;;;;5090922;28;19912;-65
2022/01/22 12:08:18;;;;;;;;;;;19.10;46.60;;;;;;5091027;28;19912;-64
2022/01/22 12:14:26;;;;;;;;;;;19.10;46.50;;;;;;5090415;28;20261;-65
2022/01/22 12:16:15;;;;;;;;;;;19.20;46.50;;;;;;5092369;28;20316;-65
2022/01/22 12:18:46;;;;;;;;;;;19.20;46.50;;;;;;5090588;28;19920;-64
2022/01/22 12:21:31;;;;;;;;;;;19.20;46.50;;;;;;5088982;28;20292;-64
2022/01/22 12:23:57;;;;;;;;;;;19.10;46.60;;;;;;5086712;28;20365;-64
2022/01/22 12:26:48;;;;;;;;;;;19.10;46.40;;;;;;5082613;28;19965;-65
2022/01/22 12:29:30;;;;;;;;;;;19.10;46.60;;;;;;5089684;28;19923;-63
2022/01/22 12:32:09;;;;;;;;;;;19.10;46.60;;;;;;5089663;28;19936;-65
2022/01/22 12:34:55;;;;;;;;;;;19.10;46.60;;;;;;5090615;28;19923;-64
2022/01/22 12:37:21;;;;;;;;;;;19.10;46.60;;;;;;5090802;28;19932;-64
2022/01/22 12:39:50;;;;;;;;;;;19.10;46.70;;;;;;5091434;28;19978;-65
2022/01/22 12:42:28;;;;;;;;;;;19.20;46.70;;;;;;5090099;28;19961;-64
2022/01/22 12:45:00;;;;;;;;;;;19.20;46.70;;;;;;5097354;28;19965;-64
2022/01/22 12:47:26;;;;;;;;;;;19.20;46.80;;;;;;5076961;28;20061;-64
2022/01/22 12:50:01;;;;;;;;;;;19.20;46.90;;;;;;5076615;28;20351;-64
2022/01/22 12:52:27;;;;;;;;;;;19.20;46.70;;;;;;5106173;28;20341;-64
2022/01/22 12:54:57;;;;;;;;;;;19.20;46.80;;;;;;5094880;28;19908;-64
2022/01/22 12:57:25;;;;;;;;;;;19.20;46.90;;;;;;5102418;28;19907;-64
2022/01/22 13:00:09;;;;;;;;;;;19.20;46.90;;;;;;5094364;28;19963;-64
2022/01/22 13:02:38;;;;;;;;;;;19.20;46.90;;;;;;5094062;28;19957;-64
2022/01/22 13:05:03;;;;;;;;;;;19.20;46.70;;;;;;5090540;28;20043;-64
2022/01/22 13:07:36;;;;;;;;;;;19.20;46.80;;;;;;5094058;28;20325;-65
2022/01/22 13:10:06;;;;;;;;;;;19.20;46.80;;;;;;5070547;28;19948;-64
2022/01/22 13:12:32;;;;;;;;;;;19.20;46.90;;;;;;5106024;28;19918;-65
2022/01/22 13:14:57;;;;;;;;;;;19.20;46.90;;;;;;5129132;27;20439;-64
2022/01/22 13:17:30;;;;;;;;;;;19.20;47.00;;;;;;5109565;28;19994;-64
2022/01/22 13:19:55;;;;;;;;;;;19.20;46.80;;;;;;5091169;28;20280;-64
2022/01/22 13:22:29;;;;;;;;;;;19.20;47.00;;;;;;5095602;28;19918;-65
2022/01/22 13:25:01;;;;;;;;;;;19.30;46.80;;;;;;5104281;28;19911;-65
2022/01/22 13:27:27;;;;;;;;;;;19.30;46.80;;;;;;5120900;27;19912;-64
2022/01/22 13:29:54;;;;;;;;;;;19.30;46.80;;;;;;5146705;27;19931;-65
2022/01/22 13:32:31;;;;;;;;;;;19.30;46.80;;;;;;5073542;28;19935;-65
2022/01/22 13:35:20;;;;;;;;;;;19.30;46.80;;;;;;5091211;28;19915;-65
2022/01/22 13:39:34;;;;;;;;;;;19.30;46.80;;;;;;5094653;28;19908;-64
2022/01/22 13:49:30;;;;;;;;;;;19.30;46.90;;;;;;5093184;28;20020;-64
2022/01/22 13:51:56;;;;;;;;;;;19.30;46.80;;;;;;5092489;28;20396;-65
2022/01/22 13:54:26;;;;;;;;;;;19.30;46.80;;;;;;5092035;28;19992;-64
2022/01/22 13:56:54;;;;;;;;;;;19.30;46.80;;;;;;5091831;28;19912;-63
2022/01/22 13:59:21;;;;;;;;;;;19.30;47.00;;;;;;5092358;28;20276;-64
2022/01/22 14:02:03;;;;;;;;;;;19.30;46.90;;;;;;5087908;28;19919;-64
2022/01/22 14:04:36;;;;;;;;;;;19.30;46.80;;;;;;5083724;28;19971;-64
2022/01/22 14:07:11;;;;;;;;;;;19.30;46.90;;;;;;5083926;28;20917;-64
2022/01/22 14:09:36;;;;;;;;;;;19.30;46.90;;;;;;5087859;28;20042;-65
2022/01/22 14:12:03;;;;;;;;;;;19.30;46.90;;;;;;5081852;28;20325;-64
2022/01/22 14:14:31;;;;;;;;;;;19.30;47.00;;;;;;5089512;28;19930;-64
2022/01/22 14:17:09;;;;;;;;;;;19.30;46.90;;;;;;5094336;27;20283;-65
2022/01/22 14:19:34;;;;;;;;;;;19.30;46.90;;;;;;5092908;28;19927;-64
2022/01/22 14:22:00;;;;;;;;;;;19.30;46.80;;;;;;5125519;27;19912;-64
2022/01/22 14:24:30;;;;;;;;;;;19.30;46.90;;;;;;5079044;28;20276;-64
2022/01/22 14:26:55;;;;;;;;;;;19.30;46.80;;;;;;5108061;27;19945;-64
2022/01/22 14:29:21;;;;;;;;;;;19.30;46.80;;;;;;5092261;28;20370;-64
2022/01/22 14:31:50;;;;;;;;;;;19.30;46.90;;;;;;5095729;28;19907;-65
2022/01/22 14:34:32;;;;;;;;;;;19.40;47.00;;;;;;5066534;28;20008;-65
2022/01/22 14:36:58;;;;;;;;;;;19.40;46.90;;;;;;5090855;28;19919;-65
2022/01/22 14:44:36;;;;;;;;;;;19.30;46.80;;;;;;5071697;28;20000;-64
2022/01/22 14:47:04;;;;;;;;;;;19.30;46.80;;;;;;5090421;28;19908;-64
2022/01/22 14:49:34;;;;;;;;;;;19.30;46.90;;;;;;5090619;28;20020;-64
2022/01/22 14:52:00;;;;;;;;;;;19.30;46.90;;;;;;5088584;28;19916;-64
2022/01/22 14:54:26;;;;;;;;;;;19.30;46.90;;;;;;5091282;28;20447;-64
2022/01/22 14:56:51;;;;;;;;;;;19.30;46.90;;;;;;5072793;28;20265;-64
2022/01/22 14:59:17;;;;;;;;;;;19.30;47.00;;;;;;5095194;28;19924;-64
2022/01/22 15:01:43;;;;;;;;;;;19.30;46.90;;;;;;5074758;28;19953;-64
2022/01/22 15:04:08;;;;;;;;;;;19.30;46.90;;;;;;5092908;28;19912;-64
2022/01/22 15:06:34;;;;;;;;;;;19.40;47.00;;;;;;5096084;28;19912;-65
2022/01/22 15:08:59;;;;;;;;;;;19.40;47.00;;;;;;5102970;28;19915;-64
2022/01/22 15:11:25;;;;;;;;;;;19.40;47.70;;;;;;5096479;28;19912;-65
2022/01/22 15:13:50;;;;;;;;;;;19.40;47.00;;;;;;5141982;27;19913;-64
2022/01/22 15:16:18;;;;;;;;;;;19.40;46.90;;;;;;5091913;28;19920;-64
2022/01/22 15:21:09;;;;;;;;;;;19.40;46.90;;;;;;5092950;28;19912;-64
2022/01/22 15:23:35;;;;;;;;;;;19.40;46.90;;;;;;5089580;28;19935;-64
2022/01/22 15:26:01;;;;;;;;;;;19.40;46.90;;;;;;5089094;28;20287;-64
2022/01/22 15:28:31;;;;;;;;;;;19.40;46.90;;;;;;5088230;28;19920;-65
2022/01/22 15:30:57;;;;;;;;;;;19.40;46.90;;;;;;5092190;28;19951;-64
2022/01/22 15:33:35;;;;;;;;;;;19.40;47.00;;;;;;5090793;28;19962;-68
2022/01/22 15:36:01;;;;;;;;;;;19.40;47.00;;;;;;5094415;28;19969;-64
2022/01/22 15:38:26;;;;;;;;;;;19.50;47.00;;;;;;5074109;28;19959;-64
2022/01/22 15:40:51;;;;;;;;;;;19.40;46.90;;;;;;5090715;28;19914;-65
2022/01/22 15:43:17;;;;;;;;;;;19.40;46.90;;;;;;5091187;28;19916;-64
2022/01/22 15:45:42;;;;;;;;;;;19.40;46.90;;;;;;5091016;28;19908;-64
2022/01/22 15:48:08;;;;;;;;;;;19.40;46.80;;;;;;5090966;28;19939;-65
2022/01/22 15:50:34;;;;;;;;;;;19.40;46.80;;;;;;5086423;28;19946;-64
2022/01/22 15:52:59;;;;;;;;;;;19.40;46.80;;;;;;5096489;28;19955;-64
2022/01/22 15:55:25;;;;;;;;;;;19.50;46.80;;;;;;5077933;28;19915;-65
2022/01/22 15:57:50;;;;;;;;;;;19.50;46.90;;;;;;5095244;28;20363;-64
2022/01/22 16:00:16;;;;;;;;;;;19.50;46.80;;;;;;5128202;28;19970;-65
2022/01/22 16:02:41;;;;;;;;;;;19.50;46.80;;;;;;5112431;28;19915;-64
2022/01/22 16:05:07;;;;;;;;;;;19.50;46.90;;;;;;5102574;28;20500;-64
2022/01/22 16:07:32;;;;;;;;;;;19.50;46.80;;;;;;5090855;28;19976;-64
2022/01/22 16:09:58;;;;;;;;;;;19.50;46.80;;;;;;5100146;28;19912;-64